sensor_id;sensor_type;location;lat;lon;timestamp;pressure;altitude;pressure_sealevel;temperature;humidity
5238;BME280;2639;49.700;7.962;2022-11-02T04:19:20;99238.69;;;11.49;93.48
5238;BME280;2639;49.700;7.962;2022-11-02T04:22:41;99247.59;;;11.43;93.18
5238;BME280;2639;49.700;7.962;2022-11-02T04:26:05;99242.38;;;11.31;94.19
5238;BME280;2639;49.700;7.962;2022-11-02T04:29:23;99244.66;;;11.28;95.25
5238;BME280;2639;49.700;7.962;2022-11-02T04:32:36;99249.56;;;11.35;94.91
5238;BME280;2639;49.700;7.962;2022-11-02T04:36:00;99247.00;;;11.25;95.33
5238;BME280;2639;49.700;7.962;2022-11-02T04:39:11;99237.81;;;11.16;96.08
5238;BME280;2639;49.700;7.962;2022-11-02T04:42:20;99250.28;;;11.12;96.71
5238;BME280;2639;49.700;7.962;2022-11-02T04:45:38;99253.22;;;11.16;97.46
5238;BME280;2639;49.700;7.962;2022-11-02T04:48:48;99255.78;;;11.16;97.23
5238;BME280;2639;49.700;7.962;2022-11-02T04:51:59;99265.44;;;11.19;96.69
5238;BME280;2639;49.700;7.962;2022-11-02T04:55:11;99262.94;;;11.21;96.68
5238;BME280;2639;49.700;7.962;2022-11-02T04:58:21;99274.03;;;11.20;96.94
5238;BME280;2639;49.700;7.962;2022-11-02T05:01:31;99263.50;;;11.16;97.32
5238;BME280;2639;49.700;7.962;2022-11-02T05:04:43;99270.94;;;11.24;97.22
5238;BME280;2639;49.700;7.962;2022-11-02T05:07:55;99273.59;;;11.25;97.51
5238;BME280;2639;49.700;7.962;2022-11-02T05:11:05;99275.28;;;11.25;97.63
5238;BME280;2639;49.700;7.962;2022-11-02T05:14:15;99269.13;;;11.23;98.01
5238;BME280;2639;49.700;7.962;2022-11-02T05:17:25;99280.94;;;11.21;98.16
5238;BME280;2639;49.700;7.962;2022-11-02T05:20:35;99273.59;;;11.25;98.60
5238;BME280;2639;49.700;7.962;2022-11-02T05:23:46;99276.31;;;11.27;98.05
5238;BME280;2639;49.700;7.962;2022-11-02T05:26:55;99291.72;;;11.27;97.92
5238;BME280;2639;49.700;7.962;2022-11-02T05:30:07;99301.38;;;11.29;98.15
5238;BME280;2639;49.700;7.962;2022-11-02T05:33:18;99306.41;;;11.18;98.55
5238;BME280;2639;49.700;7.962;2022-11-02T05:36:29;99324.63;;;11.21;99.56
5238;BME280;2639;49.700;7.962;2022-11-02T05:39:40;99312.34;;;11.16;99.41
5238;BME280;2639;49.700;7.962;2022-11-02T05:42:58;99315.53;;;11.24;99.01
5238;BME280;2639;49.700;7.962;2022-11-02T05:46:08;99313.38;;;11.19;99.47
5238;BME280;2639;49.700;7.962;2022-11-02T05:49:18;99313.09;;;11.15;99.96
5238;BME280;2639;49.700;7.962;2022-11-02T05:52:27;99320.06;;;11.16;99.91
5238;BME280;2639;49.700;7.962;2022-11-02T05:55:38;99310.44;;;11.14;99.38
5238;BME280;2639;49.700;7.962;2022-11-02T05:58:48;99313.38;;;11.08;100.00
5238;BME280;2639;49.700;7.962;2022-11-02T06:58:50;99393.31;;;10.91;100.00
5238;BME280;2639;49.700;7.962;2022-11-02T07:02:00;99405.38;;;10.92;100.00
5238;BME280;2639;49.700;7.962;2022-11-02T07:05:10;99410.50;;;11.02;100.00
5238;BME280;2639;49.700;7.962;2022-11-02T07:08:20;99423.88;;;11.08;100.00
5238;BME280;2639;49.700;7.962;2022-11-02T07:11:30;99426.72;;;11.01;100.00
5238;BME280;2639;49.700;7.962;2022-11-02T07:14:41;99432.59;;;10.90;100.00
5238;BME280;2639;49.700;7.962;2022-11-02T07:17:51;99431.59;;;10.98;100.00
5238;BME280;2639;49.700;7.962;2022-11-02T07:21:01;99438.25;;;11.06;100.00
5238;BME280;2639;49.700;7.962;2022-11-02T07:24:11;99449.31;;;11.05;100.00
5238;BME280;2639;49.700;7.962;2022-11-02T07:27:21;99452.94;;;11.07;100.00
5238;BME280;2639;49.700;7.962;2022-11-02T07:30:33;99452.38;;;11.11;100.00
5238;BME280;2639;49.700;7.962;2022-11-02T07:33:43;99449.97;;;11.23;100.00
5238;BME280;2639;49.700;7.962;2022-11-02T07:36:54;99457.78;;;11.25;100.00
5238;BME280;2639;49.700;7.962;2022-11-02T07:40:05;99457.78;;;11.25;100.00
5238;BME280;2639;49.700;7.962;2022-11-02T07:43:15;99466.53;;;11.27;100.00
5238;BME280;2639;49.700;7.962;2022-11-02T07:46:34;99462.44;;;11.29;100.00
5238;BME280;2639;49.700;7.962;2022-11-02T07:49:43;99462.13;;;11.46;100.00
5238;BME280;2639;49.700;7.962;2022-11-02T07:52:54;99467.03;;;11.53;99.17
5238;BME280;2639;49.700;7.962;2022-11-02T07:56:05;99473.66;;;11.72;99.16
5238;BME280;2639;49.700;7.962;2022-11-02T08:14:30;99478.31;;;12.51;90.75
5238;BME280;2639;49.700;7.962;2022-11-02T08:17:39;99486.91;;;12.83;90.32
5238;BME280;2639;49.700;7.962;2022-11-02T08:20:49;99484.31;;;13.17;87.05
5238;BME280;2639;49.700;7.962;2022-11-02T08:23:59;99484.00;;;13.46;85.55
5238;BME280;2639;49.700;7.962;2022-11-02T08:27:09;99480.75;;;13.73;83.32
5238;BME280;2639;49.700;7.962;2022-11-02T08:30:19;99488.16;;;14.03;82.48
5238;BME280;2639;49.700;7.962;2022-11-02T08:33:29;99487.94;;;14.24;80.22
5238;BME280;2639;49.700;7.962;2022-11-02T08:36:39;99487.00;;;14.47;78.30
5238;BME280;2639;49.700;7.962;2022-11-02T08:39:48;99500.13;;;14.62;78.54
5238;BME280;2639;49.700;7.962;2022-11-02T08:42:59;99492.06;;;14.57;77.42
5238;BME280;2639;49.700;7.962;2022-11-02T08:46:10;99493.22;;;14.86;76.45
5238;BME280;2639;49.700;7.962;2022-11-02T08:49:24;99486.38;;;15.11;75.15
5238;BME280;2639;49.700;7.962;2022-11-02T08:52:34;99489.66;;;15.22;74.56
5238;BME280;2639;49.700;7.962;2022-11-02T08:55:48;99497.53;;;15.24;72.73
5238;BME280;2639;49.700;7.962;2022-11-02T08:58:58;99498.44;;;15.24;74.72
5238;BME280;2639;49.700;7.962;2022-11-02T09:02:09;99494.19;;;15.25;73.39
5238;BME280;2639;49.700;7.962;2022-11-02T09:05:18;99504.22;;;15.20;73.20
5238;BME280;2639;49.700;7.962;2022-11-02T09:08:29;99499.34;;;15.00;73.99
5238;BME280;2639;49.700;7.962;2022-11-02T09:11:38;99503.59;;;15.24;73.32
5238;BME280;2639;49.700;7.962;2022-11-02T09:14:48;99512.75;;;15.44;71.90
5238;BME280;2639;49.700;7.962;2022-11-02T09:17:59;99504.72;;;15.66;70.94
5238;BME280;2639;49.700;7.962;2022-11-02T09:21:09;99497.13;;;15.56;69.79
5238;BME280;2639;49.700;7.962;2022-11-02T09:24:19;99500.91;;;15.61;69.22
5238;BME280;2639;49.700;7.962;2022-11-02T09:27:28;99511.94;;;15.70;68.64
5238;BME280;2639;49.700;7.962;2022-11-02T09:30:38;99507.59;;;16.09;68.49
5238;BME280;2639;49.700;7.962;2022-11-02T09:33:49;99490.41;;;16.38;66.50
5238;BME280;2639;49.700;7.962;2022-11-02T09:36:59;99497.34;;;16.52;64.94
5238;BME280;2639;49.700;7.962;2022-11-02T09:40:09;99492.44;;;16.15;65.15
5238;BME280;2639;49.700;7.962;2022-11-02T09:43:26;99507.28;;;16.18;65.32
5238;BME280;2639;49.700;7.962;2022-11-02T09:46:42;99511.38;;;16.41;64.30
5238;BME280;2639;49.700;7.962;2022-11-02T09:49:56;99522.22;;;15.95;64.95
5238;BME280;2639;49.700;7.962;2022-11-02T09:53:13;99529.78;;;15.15;65.07
5238;BME280;2639;49.700;7.962;2022-11-02T09:56:26;99521.84;;;15.64;66.21
5238;BME280;2639;49.700;7.962;2022-11-02T09:59:36;99527.09;;;16.17;65.02
5238;BME280;2639;49.700;7.962;2022-11-02T10:02:53;99529.28;;;16.51;62.88
5238;BME280;2639;49.700;7.962;2022-11-02T10:06:08;99523.25;;;16.92;62.95
5238;BME280;2639;49.700;7.962;2022-11-02T10:09:25;99522.09;;;17.30;61.17
5238;BME280;2639;49.700;7.962;2022-11-02T10:12:43;99519.72;;;17.48;60.13
5238;BME280;2639;49.700;7.962;2022-11-02T10:15:59;99520.13;;;17.26;59.34
5238;BME280;2639;49.700;7.962;2022-11-02T10:19:14;99517.53;;;16.98;59.94
5238;BME280;2639;49.700;7.962;2022-11-02T10:22:31;99507.22;;;17.13;60.19
5238;BME280;2639;49.700;7.962;2022-11-02T10:25:41;99499.16;;;17.08;58.96
5238;BME280;2639;49.700;7.962;2022-11-02T10:28:57;99495.97;;;17.27;60.47
5238;BME280;2639;49.700;7.962;2022-11-02T10:32:09;99499.78;;;17.19;58.88
5238;BME280;2639;49.700;7.962;2022-11-02T10:35:26;99489.81;;;16.97;59.02
5238;BME280;2639;49.700;7.962;2022-11-02T10:39:10;99492.47;;;16.98;58.69
5238;BME280;2639;49.700;7.962;2022-11-02T10:42:37;99501.13;;;16.71;59.77
5238;BME280;2639;49.700;7.962;2022-11-02T10:46:00;99508.19;;;16.18;59.71
5238;BME280;2639;49.700;7.962;2022-11-02T10:49:22;99516.91;;;16.47;59.69
5238;BME280;2639;49.700;7.962;2022-11-02T10:52:41;99505.72;;;16.61;59.06
5238;BME280;2639;49.700;7.962;2022-11-02T10:55:58;99502.84;;;16.98;58.12
5238;BME280;2639;49.700;7.962;2022-11-02T10:59:13;99522.25;;;16.90;58.53
5238;BME280;2639;49.700;7.962;2022-11-02T11:02:24;99513.91;;;16.68;58.92
5238;BME280;2639;49.700;7.962;2022-11-02T11:05:36;99500.94;;;16.68;58.95
5238;BME280;2639;49.700;7.962;2022-11-02T11:08:47;99505.56;;;16.45;57.59
5238;BME280;2639;49.700;7.962;2022-11-02T11:12:03;99501.16;;;16.57;58.51
5238;BME280;2639;49.700;7.962;2022-11-02T11:15:21;99493.41;;;16.99;57.79
5238;BME280;2639;49.700;7.962;2022-11-02T11:18:52;99488.25;;;17.29;57.12
5238;BME280;2639;49.700;7.962;2022-11-02T11:22:25;99502.03;;;17.13;57.63
5238;BME280;2639;49.700;7.962;2022-11-02T11:25:36;99503.63;;;17.11;57.16
5238;BME280;2639;49.700;7.962;2022-11-02T11:28:53;99494.91;;;17.38;56.23
5238;BME280;2639;49.700;7.962;2022-11-02T11:32:12;99476.47;;;17.34;55.58
5238;BME280;2639;49.700;7.962;2022-11-02T11:35:28;99486.69;;;17.45;56.68
5238;BME280;2639;49.700;7.962;2022-11-02T11:38:45;99496.16;;;17.30;56.82
5238;BME280;2639;49.700;7.962;2022-11-02T11:41:57;99475.59;;;17.48;56.81
5238;BME280;2639;49.700;7.962;2022-11-02T11:45:17;99477.72;;;17.70;55.87
5238;BME280;2639;49.700;7.962;2022-11-02T11:48:33;99484.72;;;17.71;55.97
5238;BME280;2639;49.700;7.962;2022-11-02T11:51:48;99483.19;;;18.04;55.37
5238;BME280;2639;49.700;7.962;2022-11-02T11:55:00;99488.66;;;18.09;54.26
5238;BME280;2639;49.700;7.962;2022-11-02T11:58:14;99480.53;;;17.88;54.57
5238;BME280;2639;49.700;7.962;2022-11-02T12:01:37;99488.84;;;17.53;55.30
5238;BME280;2639;49.700;7.962;2022-11-02T12:04:49;99477.56;;;17.67;55.93
5238;BME280;2639;49.700;7.962;2022-11-02T12:08:12;99470.22;;;17.60;56.09
5238;BME280;2639;49.700;7.962;2022-11-02T12:11:40;99471.66;;;17.55;55.64
5238;BME280;2639;49.700;7.962;2022-11-02T12:15:00;99467.84;;;17.20;56.41
5238;BME280;2639;49.700;7.962;2022-11-02T12:18:30;99482.97;;;16.84;56.91
5238;BME280;2639;49.700;7.962;2022-11-02T12:21:50;99473.53;;;16.58;58.58
5238;BME280;2639;49.700;7.962;2022-11-02T12:25:15;99463.47;;;16.49;58.92
5238;BME280;2639;49.700;7.962;2022-11-02T12:28:37;99467.00;;;16.36;58.47
5238;BME280;2639;49.700;7.962;2022-11-02T12:31:56;99465.91;;;16.33;59.44
5238;BME280;2639;49.700;7.962;2022-11-02T12:35:24;99454.28;;;16.54;59.70
5238;BME280;2639;49.700;7.962;2022-11-02T12:38:48;99451.50;;;16.51;59.32
5238;BME280;2639;49.700;7.962;2022-11-02T12:42:13;99455.72;;;16.36;59.32
5238;BME280;2639;49.700;7.962;2022-11-02T12:45:42;99455.25;;;16.28;60.04
5238;BME280;2639;49.700;7.962;2022-11-02T12:49:05;99457.94;;;16.16;60.99
5238;BME280;2639;49.700;7.962;2022-11-02T12:52:32;99454.59;;;16.04;60.97
5238;BME280;2639;49.700;7.962;2022-11-02T12:55:49;99454.16;;;15.85;60.71
5238;BME280;2639;49.700;7.962;2022-11-02T12:59:01;99454.97;;;15.70;62.29
5238;BME280;2639;49.700;7.962;2022-11-02T13:02:15;99452.53;;;15.60;62.61
5238;BME280;2639;49.700;7.962;2022-11-02T13:05:32;99459.66;;;15.38;63.49
5238;BME280;2639;49.700;7.962;2022-11-02T13:08:50;99458.84;;;15.39;63.44
5238;BME280;2639;49.700;7.962;2022-11-02T13:12:05;99449.03;;;15.46;63.12
5238;BME280;2639;49.700;7.962;2022-11-02T13:15:18;99453.41;;;15.34;63.11
5238;BME280;2639;49.700;7.962;2022-11-02T13:18:36;99456.72;;;15.20;63.25
5238;BME280;2639;49.700;7.962;2022-11-02T13:21:52;99462.09;;;15.09;63.01
5238;BME280;2639;49.700;7.962;2022-11-02T13:25:13;99447.25;;;15.07;61.37
5238;BME280;2639;49.700;7.962;2022-11-02T13:28:32;99458.16;;;15.28;62.51
5238;BME280;2639;49.700;7.962;2022-11-02T13:31:45;99443.56;;;15.42;61.22
5238;BME280;2639;49.700;7.962;2022-11-02T13:34:58;99440.16;;;15.29;59.69
5238;BME280;2639;49.700;7.962;2022-11-02T13:38:24;99436.56;;;15.27;59.68
5238;BME280;2639;49.700;7.962;2022-11-02T13:41:56;99436.50;;;15.39;58.97
5238;BME280;2639;49.700;7.962;2022-11-02T13:45:30;99429.22;;;15.47;59.73
5238;BME280;2639;49.700;7.962;2022-11-02T13:48:50;99432.72;;;15.34;59.35
5238;BME280;2639;49.700;7.962;2022-11-02T13:52:04;99419.47;;;15.29;59.97
5238;BME280;2639;49.700;7.962;2022-11-02T13:55:27;99425.22;;;15.39;60.42
5238;BME280;2639;49.700;7.962;2022-11-02T13:58:46;99426.91;;;15.38;60.86
5238;BME280;2639;49.700;7.962;2022-11-02T14:02:00;99424.25;;;15.36;61.58
5238;BME280;2639;49.700;7.962;2022-11-02T14:05:21;99428.97;;;15.17;60.99
5238;BME280;2639;49.700;7.962;2022-11-02T14:08:37;99422.78;;;15.15;60.30
5238;BME280;2639;49.700;7.962;2022-11-02T14:11:48;99420.97;;;15.01;59.95
5238;BME280;2639;49.700;7.962;2022-11-02T14:18:34;99423.16;;;14.94;60.85
5238;BME280;2639;49.700;7.962;2022-11-02T14:22:07;99425.94;;;14.98;61.33
5238;BME280;2639;49.700;7.962;2022-11-02T14:25:18;99415.59;;;14.98;60.30
5238;BME280;2639;49.700;7.962;2022-11-02T14:28:33;99423.81;;;14.92;61.31
5238;BME280;2639;49.700;7.962;2022-11-02T14:31:55;99420.91;;;14.87;60.65
5238;BME280;2639;49.700;7.962;2022-11-02T14:35:23;99413.59;;;14.93;61.05
5238;BME280;2639;49.700;7.962;2022-11-02T14:38:55;99415.16;;;14.91;60.88
5238;BME280;2639;49.700;7.962;2022-11-02T14:42:21;99422.84;;;14.90;60.38
5238;BME280;2639;49.700;7.962;2022-11-02T14:45:45;99419.50;;;14.79;60.71
5238;BME280;2639;49.700;7.962;2022-11-02T14:49:01;99426.63;;;14.70;60.90
5238;BME280;2639;49.700;7.962;2022-11-02T14:52:23;99425.81;;;14.71;60.30
5238;BME280;2639;49.700;7.962;2022-11-02T14:55:35;99416.28;;;14.70;60.92
5238;BME280;2639;49.700;7.962;2022-11-02T14:58:50;99419.75;;;14.70;61.47
5238;BME280;2639;49.700;7.962;2022-11-02T15:02:05;99413.53;;;14.55;61.37
5238;BME280;2639;49.700;7.962;2022-11-02T15:05:22;99410.63;;;14.39;61.57
5238;BME280;2639;49.700;7.962;2022-11-02T15:08:48;99403.63;;;14.49;61.96
5238;BME280;2639;49.700;7.962;2022-11-02T15:11:59;99402.03;;;14.51;62.08
5238;BME280;2639;49.700;7.962;2022-11-02T15:15:26;99401.84;;;14.48;62.14
5238;BME280;2639;49.700;7.962;2022-11-02T15:18:38;99406.38;;;14.39;62.85
5238;BME280;2639;49.700;7.962;2022-11-02T15:21:50;99400.97;;;14.36;62.63
5238;BME280;2639;49.700;7.962;2022-11-02T15:25:08;99402.34;;;14.31;62.94
5238;BME280;2639;49.700;7.962;2022-11-02T15:28:22;99396.09;;;14.16;64.73
5238;BME280;2639;49.700;7.962;2022-11-02T15:31:34;99401.25;;;14.04;65.65
5238;BME280;2639;49.700;7.962;2022-11-02T15:34:48;99395.91;;;13.89;67.09
5238;BME280;2639;49.700;7.962;2022-11-02T15:38:01;99408.50;;;13.73;67.65
5238;BME280;2639;49.700;7.962;2022-11-02T15:41:36;99401.78;;;13.51;68.88
5238;BME280;2639;49.700;7.962;2022-11-02T15:45:03;99417.06;;;13.26;70.02
5238;BME280;2639;49.700;7.962;2022-11-02T15:48:45;99416.94;;;13.13;71.40
5238;BME280;2639;49.700;7.962;2022-11-02T15:52:04;99411.75;;;13.01;71.58
5238;BME280;2639;49.700;7.962;2022-11-02T15:55:19;99398.69;;;12.88;72.81
5238;BME280;2639;49.700;7.962;2022-11-02T15:58:41;99392.13;;;12.69;73.70
5238;BME280;2639;49.700;7.962;2022-11-02T16:02:06;99394.09;;;12.50;74.27
5238;BME280;2639;49.700;7.962;2022-11-02T16:05:22;99397.81;;;12.31;75.46
5238;BME280;2639;49.700;7.962;2022-11-02T16:08:34;99395.31;;;12.21;75.86
5238;BME280;2639;49.700;7.962;2022-11-02T16:11:59;99390.50;;;12.04;76.50
5238;BME280;2639;49.700;7.962;2022-11-02T16:15:16;99387.72;;;11.90;76.90
5238;BME280;2639;49.700;7.962;2022-11-02T16:18:29;99391.84;;;11.78;77.64
5238;BME280;2639;49.700;7.962;2022-11-02T16:21:39;99389.31;;;11.68;79.09
5238;BME280;2639;49.700;7.962;2022-11-02T16:24:52;99386.53;;;11.54;79.44
5238;BME280;2639;49.700;7.962;2022-11-02T16:28:11;99385.66;;;11.44;79.66
5238;BME280;2639;49.700;7.962;2022-11-02T16:31:25;99388.13;;;11.32;80.44
5238;BME280;2639;49.700;7.962;2022-11-02T16:34:39;99386.97;;;11.18;80.90
5238;BME280;2639;49.700;7.962;2022-11-02T16:37:50;99391.91;;;11.05;81.61
5238;BME280;2639;49.700;7.962;2022-11-02T16:41:01;99385.84;;;10.94;82.94
5238;BME280;2639;49.700;7.962;2022-11-02T16:44:16;99387.50;;;10.83;83.55
5238;BME280;2639;49.700;7.962;2022-11-02T16:47:35;99386.75;;;10.74;83.89
5238;BME280;2639;49.700;7.962;2022-11-02T16:51:00;99381.22;;;10.59;84.27
5238;BME280;2639;49.700;7.962;2022-11-02T16:54:26;99386.09;;;10.46;85.29
5238;BME280;2639;49.700;7.962;2022-11-02T16:57:43;99381.97;;;10.38;84.98
5238;BME280;2639;49.700;7.962;2022-11-02T17:00:56;99386.00;;;10.25;85.74
5238;BME280;2639;49.700;7.962;2022-11-02T17:04:17;99384.94;;;10.13;85.90
5238;BME280;2639;49.700;7.962;2022-11-02T17:07:32;99382.22;;;10.01;86.49
5238;BME280;2639;49.700;7.962;2022-11-02T17:10:43;99396.41;;;9.87;87.14
5238;BME280;2639;49.700;7.962;2022-11-02T17:13:55;99397.13;;;9.76;87.94
5238;BME280;2639;49.700;7.962;2022-11-02T17:17:30;99396.59;;;9.70;88.25
5238;BME280;2639;49.700;7.962;2022-11-02T17:20:42;99387.31;;;9.62;88.83
5238;BME280;2639;49.700;7.962;2022-11-02T17:23:54;99390.03;;;9.44;88.77
5238;BME280;2639;49.700;7.962;2022-11-02T17:27:15;99397.63;;;9.24;90.16
5238;BME280;2639;49.700;7.962;2022-11-02T17:30:42;99406.47;;;9.09;91.98
5238;BME280;2639;49.700;7.962;2022-11-02T17:33:53;99406.19;;;9.05;92.91
5238;BME280;2639;49.700;7.962;2022-11-02T17:37:20;99400.78;;;9.02;92.21
5238;BME280;2639;49.700;7.962;2022-11-02T17:40:32;99409.09;;;9.00;92.51
5238;BME280;2639;49.700;7.962;2022-11-02T17:43:43;99406.88;;;8.94;92.78
5238;BME280;2639;49.700;7.962;2022-11-02T17:46:54;99402.84;;;8.88;92.67
5238;BME280;2639;49.700;7.962;2022-11-02T17:50:04;99398.56;;;8.78;91.81
5238;BME280;2639;49.700;7.962;2022-11-02T17:53:17;99404.69;;;8.61;93.20
5238;BME280;2639;49.700;7.962;2022-11-02T17:56:27;99400.25;;;8.41;95.80
5238;BME280;2639;49.700;7.962;2022-11-02T17:59:38;99397.06;;;8.35;96.19
5238;BME280;2639;49.700;7.962;2022-11-02T18:02:50;99389.41;;;8.35;96.30
5238;BME280;2639;49.700;7.962;2022-11-02T18:06:02;99399.22;;;8.30;95.99
5238;BME280;2639;49.700;7.962;2022-11-02T18:09:14;99387.50;;;8.23;96.15
5238;BME280;2639;49.700;7.962;2022-11-02T18:12:27;99381.06;;;8.18;96.56
5238;BME280;2639;49.700;7.962;2022-11-02T18:15:37;99379.25;;;8.17;95.84
5238;BME280;2639;49.700;7.962;2022-11-02T18:18:48;99378.94;;;8.14;96.15
5238;BME280;2639;49.700;7.962;2022-11-02T18:21:59;99383.63;;;8.10;96.09
5238;BME280;2639;49.700;7.962;2022-11-02T18:25:12;99381.00;;;7.91;96.60
5238;BME280;2639;49.700;7.962;2022-11-02T18:28:23;99393.53;;;7.70;97.69
5238;BME280;2639;49.700;7.962;2022-11-02T18:31:34;99395.69;;;7.40;99.70
5238;BME280;2639;49.700;7.962;2022-11-02T18:34:45;99398.56;;;7.43;100.00
5238;BME280;2639;49.700;7.962;2022-11-02T18:37:55;99410.41;;;7.51;100.00
5238;BME280;2639;49.700;7.962;2022-11-02T18:41:08;99393.28;;;7.50;99.92
5238;BME280;2639;49.700;7.962;2022-11-02T18:44:32;99391.00;;;7.53;99.92
5238;BME280;2639;49.700;7.962;2022-11-02T18:47:43;99385.78;;;7.43;99.23
5238;BME280;2639;49.700;7.962;2022-11-02T18:50:53;99377.94;;;7.32;99.55
5238;BME280;2639;49.700;7.962;2022-11-02T18:54:04;99381.28;;;7.31;100.00
5238;BME280;2639;49.700;7.962;2022-11-02T18:57:16;99381.09;;;7.21;100.00
5238;BME280;2639;49.700;7.962;2022-11-02T19:00:31;99380.06;;;7.19;100.00
5238;BME280;2639;49.700;7.962;2022-11-02T19:03:42;99369.72;;;7.18;100.00
5238;BME280;2639;49.700;7.962;2022-11-02T19:06:52;99372.09;;;7.16;100.00
5238;BME280;2639;49.700;7.962;2022-11-02T19:10:13;99375.88;;;7.11;100.00
5238;BME280;2639;49.700;7.962;2022-11-02T19:13:24;99364.44;;;7.07;100.00
5238;BME280;2639;49.700;7.962;2022-11-02T19:16:35;99365.03;;;7.05;100.00
5238;BME280;2639;49.700;7.962;2022-11-02T19:19:46;99355.41;;;6.93;100.00
5238;BME280;2639;49.700;7.962;2022-11-02T19:22:56;99357.84;;;6.83;100.00
5238;BME280;2639;49.700;7.962;2022-11-02T19:26:07;99351.06;;;6.75;100.00
5238;BME280;2639;49.700;7.962;2022-11-02T19:29:19;99348.22;;;6.72;100.00
5238;BME280;2639;49.700;7.962;2022-11-02T19:32:29;99356.91;;;6.74;100.00
5238;BME280;2639;49.700;7.962;2022-11-02T19:35:39;99341.91;;;6.77;100.00
5238;BME280;2639;49.700;7.962;2022-11-02T19:38:50;99342.22;;;6.80;100.00
5238;BME280;2639;49.700;7.962;2022-11-02T19:42:00;99338.63;;;6.78;100.00
5238;BME280;2639;49.700;7.962;2022-11-02T19:45:12;99338.00;;;6.81;100.00
5238;BME280;2639;49.700;7.962;2022-11-02T19:48:24;99339.81;;;6.64;100.00
5238;BME280;2639;49.700;7.962;2022-11-02T19:51:35;99339.75;;;6.47;100.00
5238;BME280;2639;49.700;7.962;2022-11-02T19:54:45;99330.44;;;6.47;100.00
5238;BME280;2639;49.700;7.962;2022-11-02T19:57:55;99326.56;;;6.51;100.00
5238;BME280;2639;49.700;7.962;2022-11-02T20:01:09;99331.06;;;6.53;100.00
5238;BME280;2639;49.700;7.962;2022-11-02T20:04:19;99332.56;;;6.51;100.00
5238;BME280;2639;49.700;7.962;2022-11-02T20:07:29;99331.38;;;6.57;100.00
5238;BME280;2639;49.700;7.962;2022-11-02T20:10:41;99334.69;;;6.56;100.00
5238;BME280;2639;49.700;7.962;2022-11-02T20:13:52;99317.84;;;6.40;100.00
5238;BME280;2639;49.700;7.962;2022-11-02T20:17:04;99320.53;;;6.33;100.00
5238;BME280;2639;49.700;7.962;2022-11-02T20:20:34;99321.09;;;6.22;100.00
5238;BME280;2639;49.700;7.962;2022-11-02T20:23:44;99318.66;;;6.15;100.00
5238;BME280;2639;49.700;7.962;2022-11-02T20:26:54;99318.19;;;6.01;100.00
5238;BME280;2639;49.700;7.962;2022-11-02T20:30:10;99324.19;;;6.02;100.00
5238;BME280;2639;49.700;7.962;2022-11-02T20:33:22;99320.16;;;6.04;100.00
5238;BME280;2639;49.700;7.962;2022-11-02T20:36:32;99327.22;;;6.06;100.00
5238;BME280;2639;49.700;7.962;2022-11-02T20:39:43;99329.13;;;6.00;100.00
5238;BME280;2639;49.700;7.962;2022-11-02T20:42:53;99320.88;;;5.94;100.00
5238;BME280;2639;49.700;7.962;2022-11-02T20:46:05;99313.75;;;5.91;100.00
5238;BME280;2639;49.700;7.962;2022-11-02T20:49:38;99322.44;;;5.85;100.00
5238;BME280;2639;49.700;7.962;2022-11-02T20:53:04;99318.25;;;5.85;100.00
5238;BME280;2639;49.700;7.962;2022-11-02T20:56:14;99306.88;;;5.90;100.00
5238;BME280;2639;49.700;7.962;2022-11-02T20:59:25;99303.63;;;6.00;100.00
5238;BME280;2639;49.700;7.962;2022-11-02T21:02:35;99304.69;;;6.02;100.00
5238;BME280;2639;49.700;7.962;2022-11-02T21:05:47;99301.38;;;6.03;100.00
5238;BME280;2639;49.700;7.962;2022-11-02T21:08:57;99295.25;;;6.10;100.00
5238;BME280;2639;49.700;7.962;2022-11-02T21:12:11;99292.59;;;6.08;100.00
5238;BME280;2639;49.700;7.962;2022-11-02T21:15:33;99294.38;;;6.09;100.00
5238;BME280;2639;49.700;7.962;2022-11-02T21:18:43;99293.75;;;6.03;100.00
5238;BME280;2639;49.700;7.962;2022-11-02T21:21:55;99285.66;;;5.99;100.00
5238;BME280;2639;49.700;7.962;2022-11-02T21:25:09;99287.47;;;6.08;100.00
5238;BME280;2639;49.700;7.962;2022-11-02T21:28:20;99282.09;;;6.14;100.00
5238;BME280;2639;49.700;7.962;2022-11-02T21:31:30;99277.88;;;6.15;100.00
5238;BME280;2639;49.700;7.962;2022-11-02T21:34:40;99279.38;;;6.13;100.00
5238;BME280;2639;49.700;7.962;2022-11-02T21:37:55;99283.72;;;6.05;100.00
5238;BME280;2639;49.700;7.962;2022-11-02T21:41:16;99277.09;;;5.98;100.00
5238;BME280;2639;49.700;7.962;2022-11-02T21:44:26;99274.53;;;5.98;100.00
5238;BME280;2639;49.700;7.962;2022-11-02T21:47:36;99274.41;;;6.05;100.00
5238;BME280;2639;49.700;7.962;2022-11-02T21:50:57;99262.25;;;6.03;100.00
5238;BME280;2639;49.700;7.962;2022-11-02T21:54:09;99270.19;;;5.97;100.00
5238;BME280;2639;49.700;7.962;2022-11-02T21:57:19;99269.16;;;5.95;100.00
5238;BME280;2639;49.700;7.962;2022-11-02T22:00:29;99266.16;;;5.99;100.00
5238;BME280;2639;49.700;7.962;2022-11-02T22:03:53;99266.47;;;6.02;100.00
5238;BME280;2639;49.700;7.962;2022-11-02T22:07:03;99266.16;;;5.99;100.00
5238;BME280;2639;49.700;7.962;2022-11-02T22:10:14;99260.72;;;5.96;100.00
5238;BME280;2639;49.700;7.962;2022-11-02T22:13:24;99251.56;;;5.89;100.00
5238;BME280;2639;49.700;7.962;2022-11-02T22:16:42;99251.41;;;5.88;100.00
5238;BME280;2639;49.700;7.962;2022-11-02T22:19:52;99250.97;;;5.92;100.00
5238;BME280;2639;49.700;7.962;2022-11-02T22:23:02;99244.41;;;5.94;100.00
5238;BME280;2639;49.700;7.962;2022-11-02T22:26:16;99238.56;;;5.95;100.00
5238;BME280;2639;49.700;7.962;2022-11-02T22:29:26;99242.75;;;5.95;100.00
5238;BME280;2639;49.700;7.962;2022-11-02T22:32:36;99236.41;;;5.91;100.00
5238;BME280;2639;49.700;7.962;2022-11-02T22:35:46;99231.75;;;5.87;100.00
5238;BME280;2639;49.700;7.962;2022-11-02T22:38:58;99220.22;;;5.90;100.00
5238;BME280;2639;49.700;7.962;2022-11-02T22:42:09;99215.19;;;5.99;100.00
5238;BME280;2639;49.700;7.962;2022-11-02T22:45:19;99211.28;;;6.03;100.00
5238;BME280;2639;49.700;7.962;2022-11-02T22:48:29;99215.47;;;6.02;100.00
5238;BME280;2639;49.700;7.962;2022-11-02T22:51:41;99215.78;;;5.97;100.00
5238;BME280;2639;49.700;7.962;2022-11-02T22:54:51;99216.63;;;5.88;100.00
5238;BME280;2639;49.700;7.962;2022-11-02T22:58:02;99202.22;;;5.89;100.00
5238;BME280;2639;49.700;7.962;2022-11-02T23:01:14;99190.25;;;5.88;100.00
5238;BME280;2639;49.700;7.962;2022-11-02T23:04:25;99188.75;;;5.90;100.00
5238;BME280;2639;49.700;7.962;2022-11-02T23:07:35;99195.34;;;5.88;100.00
5238;BME280;2639;49.700;7.962;2022-11-02T23:10:45;99190.69;;;5.84;100.00
5238;BME280;2639;49.700;7.962;2022-11-02T23:14:09;99194.72;;;5.82;100.00
